Kaptan Ergun — V7OQ6 — position and weather

sailwx.info

Track history (hours):
 
Tides and Currents Weather Stations Pressure Air Temp Water Temp Dewpoint Dewpoint Depression Visibility Wind Speed Wind Dir Waves Ship Positions

Kaptan Ergun

Last reported at 2018-Feb-11 06:45 UTC. Time now 2018-Feb-23 20:40 UTC.
Position N 41°37' E 141°35'.
Warning: this ship's position is 12 days out of date.

Length 174 m; draft 10 m.

Type: Tanker. MMSI: 538006575.

Date/timePositionNaut miles runAvg speedWind from/ knotsBaromVisibWave heightAir tempDewpointWater temp
2018-Feb-11 06:45N 41°37' E 141°35'314.0
2018-Feb-11 06:30N 41°37' E 141°31'714.2
2018-Feb-11 06:00N 41°37' E 141°21'612.9
2018-Feb-11 05:30N 41°37' E 141°13'612.8
2018-Feb-11 05:00N 41°37' E 141°04'714.0
2018-Feb-11 04:30N 41°36' E 140°55'713.1
2018-Feb-11 04:00N 41°33' E 140°47'713.7
2018-Feb-11 03:31N 41°29' E 140°39'714.3
2018-Feb-11 03:01N 41°25' E 140°32'714.7
2018-Feb-11 02:30N 41°21' E 140°23'714.4
2018-Feb-11 01:59N 41°17' E 140°15'  
Track history (hours):
 
Tides and Currents Weather Stations Pressure Air Temp Water Temp Dewpoint Dewpoint Depression Visibility Wind Speed Wind Dir Waves Ship Positions

Kaptan Ergun

Last reported at 2018-Feb-11 06:45 UTC. Time now 2018-Feb-23 20:40 UTC.
Position N 41°37' E 141°35'.
Warning: this ship's position is 12 days out of date.

Length 174 m; draft 10 m.

Type: Tanker. MMSI: 538006575.

Date/timePositionNaut miles runAvg speedWind from/ knotsBaromVisibWave heightAir tempDewpointWater temp
2018-Feb-11 06:45N 41°37' E 141°35'314.0
2018-Feb-11 06:30N 41°37' E 141°31'714.2
2018-Feb-11 06:00N 41°37' E 141°21'612.9
2018-Feb-11 05:30N 41°37' E 141°13'612.8
2018-Feb-11 05:00N 41°37' E 141°04'714.0
2018-Feb-11 04:30N 41°36' E 140°55'713.1
2018-Feb-11 04:00N 41°33' E 140°47'713.7
2018-Feb-11 03:31N 41°29' E 140°39'714.3
2018-Feb-11 03:01N 41°25' E 140°32'714.7
2018-Feb-11 02:30N 41°21' E 140°23'714.4
2018-Feb-11 01:59N 41°17' E 140°15'  

Dump ship's entire track history